sensor_id;sensor_type;location;lat;lon;timestamp;P1;durP1;ratioP1;P2;durP2;ratioP2
82417;SDS011;72059;53.734;10.260;2023-10-09T00:00:56;0.75;;;0.75;;
82417;SDS011;72059;53.734;10.260;2023-10-09T00:03:31;0.50;;;0.50;;
82417;SDS011;72059;53.734;10.260;2023-10-09T00:06:00;0.70;;;0.70;;
82417;SDS011;72059;53.734;10.260;2023-10-09T00:08:29;0.62;;;0.62;;
82417;SDS011;72059;53.734;10.260;2023-10-09T00:10:58;1.15;;;0.90;;
82417;SDS011;72059;53.734;10.260;2023-10-09T00:13:42;0.70;;;0.70;;
82417;SDS011;72059;53.734;10.260;2023-10-09T00:16:21;0.70;;;0.70;;
82417;SDS011;72059;53.734;10.260;2023-10-09T00:18:51;0.53;;;0.53;;
82417;SDS011;72059;53.734;10.260;2023-10-09T00:21:19;0.70;;;0.70;;
82417;SDS011;72059;53.734;10.260;2023-10-09T00:23:47;1.17;;;0.90;;
82417;SDS011;72059;53.734;10.260;2023-10-09T00:26:22;0.88;;;0.88;;
82417;SDS011;72059;53.734;10.260;2023-10-09T00:28:50;0.90;;;0.90;;
82417;SDS011;72059;53.734;10.260;2023-10-09T00:31:18;1.10;;;1.00;;
82417;SDS011;72059;53.734;10.260;2023-10-09T00:33:53;1.47;;;0.80;;
82417;SDS011;72059;53.734;10.260;2023-10-09T00:36:23;0.93;;;0.70;;
82417;SDS011;72059;53.734;10.260;2023-10-09T00:38:52;1.20;;;0.72;;
82417;SDS011;72059;53.734;10.260;2023-10-09T00:41:19;0.62;;;0.62;;
82417;SDS011;72059;53.734;10.260;2023-10-09T00:43:48;0.93;;;0.90;;
82417;SDS011;72059;53.734;10.260;2023-10-09T00:46:20;0.80;;;0.80;;
82417;SDS011;72059;53.734;10.260;2023-10-09T00:48:51;1.22;;;1.12;;
82417;SDS011;72059;53.734;10.260;2023-10-09T00:51:21;0.80;;;0.80;;
82417;SDS011;72059;53.734;10.260;2023-10-09T00:53:52;0.70;;;0.70;;
82417;SDS011;72059;53.734;10.260;2023-10-09T00:56:24;0.85;;;0.85;;
82417;SDS011;72059;53.734;10.260;2023-10-09T00:58:55;1.30;;;1.20;;
82417;SDS011;72059;53.734;10.260;2023-10-09T01:01:31;1.30;;;1.20;;
82417;SDS011;72059;53.734;10.260;2023-10-09T01:03:56;0.90;;;0.90;;
82417;SDS011;72059;53.734;10.260;2023-10-09T01:06:24;0.95;;;0.95;;
82417;SDS011;72059;53.734;10.260;2023-10-09T01:08:53;0.80;;;0.80;;
82417;SDS011;72059;53.734;10.260;2023-10-09T01:11:25;0.80;;;0.80;;
82417;SDS011;72059;53.734;10.260;2023-10-09T01:13:56;0.90;;;0.90;;
82417;SDS011;72059;53.734;10.260;2023-10-09T01:16:25;1.02;;;0.90;;
82417;SDS011;72059;53.734;10.260;2023-10-09T01:18:54;1.17;;;1.00;;
82417;SDS011;72059;53.734;10.260;2023-10-09T01:21:25;1.10;;;1.00;;
82417;SDS011;72059;53.734;10.260;2023-10-09T01:23:55;1.00;;;1.00;;
82417;SDS011;72059;53.734;10.260;2023-10-09T01:26:30;0.82;;;0.82;;
82417;SDS011;72059;53.734;10.260;2023-10-09T01:29:00;0.90;;;0.90;;
82417;SDS011;72059;53.734;10.260;2023-10-09T01:31:29;1.35;;;1.20;;
82417;SDS011;72059;53.734;10.260;2023-10-09T01:33:58;1.20;;;1.07;;
82417;SDS011;72059;53.734;10.260;2023-10-09T01:36:26;0.78;;;0.72;;
82417;SDS011;72059;53.734;10.260;2023-10-09T01:38:59;0.90;;;0.90;;
82417;SDS011;72059;53.734;10.260;2023-10-09T01:41:29;0.82;;;0.72;;
82417;SDS011;72059;53.734;10.260;2023-10-09T01:43:58;0.82;;;0.82;;
82417;SDS011;72059;53.734;10.260;2023-10-09T01:46:27;2.05;;;0.90;;
82417;SDS011;72059;53.734;10.260;2023-10-09T01:48:56;1.02;;;0.93;;
82417;SDS011;72059;53.734;10.260;2023-10-09T01:51:24;1.92;;;1.22;;
82417;SDS011;72059;53.734;10.260;2023-10-09T01:53:53;2.37;;;0.90;;
82417;SDS011;72059;53.734;10.260;2023-10-09T01:56:22;0.80;;;0.80;;
82417;SDS011;72059;53.734;10.260;2023-10-09T01:58:49;1.15;;;1.07;;
82417;SDS011;72059;53.734;10.260;2023-10-09T02:01:18;0.90;;;0.90;;
82417;SDS011;72059;53.734;10.260;2023-10-09T02:03:46;0.85;;;0.85;;
82417;SDS011;72059;53.734;10.260;2023-10-09T02:06:15;0.80;;;0.80;;
82417;SDS011;72059;53.734;10.260;2023-10-09T02:08:53;1.05;;;1.05;;
82417;SDS011;72059;53.734;10.260;2023-10-09T02:11:21;1.50;;;1.40;;
82417;SDS011;72059;53.734;10.260;2023-10-09T02:14:07;1.32;;;1.22;;
82417;SDS011;72059;53.734;10.260;2023-10-09T02:16:47;1.20;;;1.10;;
82417;SDS011;72059;53.734;10.260;2023-10-09T02:19:31;0.98;;;0.98;;
82417;SDS011;72059;53.734;10.260;2023-10-09T02:22:03;0.85;;;0.85;;
82417;SDS011;72059;53.734;10.260;2023-10-09T02:24:32;1.00;;;0.85;;
82417;SDS011;72059;53.734;10.260;2023-10-09T02:27:16;0.98;;;0.98;;
82417;SDS011;72059;53.734;10.260;2023-10-09T02:32:15;0.90;;;0.90;;
82417;SDS011;72059;53.734;10.260;2023-10-09T02:34:44;0.88;;;0.88;;
82417;SDS011;72059;53.734;10.260;2023-10-09T02:37:12;1.00;;;1.00;;
82417;SDS011;72059;53.734;10.260;2023-10-09T02:39:39;0.70;;;0.70;;
82417;SDS011;72059;53.734;10.260;2023-10-09T02:44:39;0.80;;;0.80;;
82417;SDS011;72059;53.734;10.260;2023-10-09T02:47:09;0.72;;;0.70;;
82417;SDS011;72059;53.734;10.260;2023-10-09T02:49:38;0.90;;;0.90;;
82417;SDS011;72059;53.734;10.260;2023-10-09T02:52:05;1.40;;;1.30;;
82417;SDS011;72059;53.734;10.260;2023-10-09T02:54:33;1.10;;;1.00;;
82417;SDS011;72059;53.734;10.260;2023-10-09T02:57:01;1.22;;;1.12;;
82417;SDS011;72059;53.734;10.260;2023-10-09T02:59:33;1.37;;;1.00;;
82417;SDS011;72059;53.734;10.260;2023-10-09T03:02:03;1.02;;;0.93;;
82417;SDS011;72059;53.734;10.260;2023-10-09T03:04:30;1.00;;;1.00;;
82417;SDS011;72059;53.734;10.260;2023-10-09T03:06:58;1.27;;;1.17;;
82417;SDS011;72059;53.734;10.260;2023-10-09T03:09:26;1.15;;;1.05;;
82417;SDS011;72059;53.734;10.260;2023-10-09T03:11:54;1.20;;;1.20;;
82417;SDS011;72059;53.734;10.260;2023-10-09T03:14:33;1.30;;;1.20;;
82417;SDS011;72059;53.734;10.260;2023-10-09T03:17:02;0.95;;;0.95;;
82417;SDS011;72059;53.734;10.260;2023-10-09T03:19:33;1.20;;;0.90;;
82417;SDS011;72059;53.734;10.260;2023-10-09T03:22:02;2.70;;;1.20;;
82417;SDS011;72059;53.734;10.260;2023-10-09T03:24:33;1.87;;;1.47;;
82417;SDS011;72059;53.734;10.260;2023-10-09T03:27:00;1.00;;;1.00;;
82417;SDS011;72059;53.734;10.260;2023-10-09T03:29:28;1.50;;;1.37;;
82417;SDS011;72059;53.734;10.260;2023-10-09T03:31:56;2.65;;;1.75;;
82417;SDS011;72059;53.734;10.260;2023-10-09T03:34:25;1.50;;;1.40;;
82417;SDS011;72059;53.734;10.260;2023-10-09T03:36:53;2.40;;;1.57;;
82417;SDS011;72059;53.734;10.260;2023-10-09T03:39:30;1.77;;;1.30;;
82417;SDS011;72059;53.734;10.260;2023-10-09T03:42:06;1.35;;;1.05;;
82417;SDS011;72059;53.734;10.260;2023-10-09T03:44:35;1.35;;;1.30;;
82417;SDS011;72059;53.734;10.260;2023-10-09T03:47:05;1.17;;;1.17;;
82417;SDS011;72059;53.734;10.260;2023-10-09T03:49:34;1.20;;;1.10;;
82417;SDS011;72059;53.734;10.260;2023-10-09T03:52:03;1.42;;;1.27;;
82417;SDS011;72059;53.734;10.260;2023-10-09T03:54:32;1.30;;;1.20;;
82417;SDS011;72059;53.734;10.260;2023-10-09T03:57:01;1.30;;;1.20;;
82417;SDS011;72059;53.734;10.260;2023-10-09T03:59:28;1.20;;;1.10;;
82417;SDS011;72059;53.734;10.260;2023-10-09T04:01:56;1.40;;;1.30;;
82417;SDS011;72059;53.734;10.260;2023-10-09T04:04:24;1.20;;;1.10;;
82417;SDS011;72059;53.734;10.260;2023-10-09T04:06:53;0.95;;;0.95;;
82417;SDS011;72059;53.734;10.260;2023-10-09T04:09:20;2.75;;;1.20;;
82417;SDS011;72059;53.734;10.260;2023-10-09T04:11:50;0.90;;;0.90;;
82417;SDS011;72059;53.734;10.260;2023-10-09T04:14:38;1.40;;;1.10;;
82417;SDS011;72059;53.734;10.260;2023-10-09T04:17:17;1.10;;;1.10;;
82417;SDS011;72059;53.734;10.260;2023-10-09T04:19:52;1.12;;;1.10;;
82417;SDS011;72059;53.734;10.260;2023-10-09T04:22:38;0.90;;;0.90;;
82417;SDS011;72059;53.734;10.260;2023-10-09T04:25:08;0.95;;;0.95;;
82417;SDS011;72059;53.734;10.260;2023-10-09T04:27:43;1.25;;;1.15;;
82417;SDS011;72059;53.734;10.260;2023-10-09T04:30:12;1.40;;;1.30;;
82417;SDS011;72059;53.734;10.260;2023-10-09T04:32:41;1.47;;;1.20;;
82417;SDS011;72059;53.734;10.260;2023-10-09T04:35:11;1.12;;;1.02;;
82417;SDS011;72059;53.734;10.260;2023-10-09T04:37:49;2.35;;;1.57;;
82417;SDS011;72059;53.734;10.260;2023-10-09T04:40:21;3.60;;;1.95;;
82417;SDS011;72059;53.734;10.260;2023-10-09T04:43:06;1.60;;;1.50;;
82417;SDS011;72059;53.734;10.260;2023-10-09T04:45:38;1.57;;;1.30;;
82417;SDS011;72059;53.734;10.260;2023-10-09T04:48:10;1.60;;;1.50;;
82417;SDS011;72059;53.734;10.260;2023-10-09T04:50:37;1.57;;;1.40;;
82417;SDS011;72059;53.734;10.260;2023-10-09T04:53:15;1.67;;;1.55;;
82417;SDS011;72059;53.734;10.260;2023-10-09T04:55:44;1.50;;;1.40;;
82417;SDS011;72059;53.734;10.260;2023-10-09T04:58:26;1.40;;;1.30;;
82417;SDS011;72059;53.734;10.260;2023-10-09T05:00:56;1.30;;;1.20;;
82417;SDS011;72059;53.734;10.260;2023-10-09T05:03:24;1.35;;;1.25;;
82417;SDS011;72059;53.734;10.260;2023-10-09T05:05:57;1.55;;;1.45;;
82417;SDS011;72059;53.734;10.260;2023-10-09T05:08:24;1.30;;;1.20;;
82417;SDS011;72059;53.734;10.260;2023-10-09T05:10:55;1.47;;;1.37;;
82417;SDS011;72059;53.734;10.260;2023-10-09T05:13:26;1.90;;;1.40;;
82417;SDS011;72059;53.734;10.260;2023-10-09T05:16:11;1.30;;;1.20;;
82417;SDS011;72059;53.734;10.260;2023-10-09T05:18:47;1.87;;;1.32;;
82417;SDS011;72059;53.734;10.260;2023-10-09T05:21:39;1.82;;;1.12;;
82417;SDS011;72059;53.734;10.260;2023-10-09T05:24:11;1.92;;;1.20;;
82417;SDS011;72059;53.734;10.260;2023-10-09T05:26:44;1.25;;;1.15;;
82417;SDS011;72059;53.734;10.260;2023-10-09T05:31:52;3.80;;;1.80;;
82417;SDS011;72059;53.734;10.260;2023-10-09T05:34:26;2.30;;;1.40;;
82417;SDS011;72059;53.734;10.260;2023-10-09T05:36:55;1.70;;;1.20;;
82417;SDS011;72059;53.734;10.260;2023-10-09T05:39:24;1.60;;;1.10;;
82417;SDS011;72059;53.734;10.260;2023-10-09T05:42:11;1.87;;;1.30;;
82417;SDS011;72059;53.734;10.260;2023-10-09T05:44:40;3.35;;;1.65;;
82417;SDS011;72059;53.734;10.260;2023-10-09T05:47:24;1.72;;;1.57;;
82417;SDS011;72059;53.734;10.260;2023-10-09T05:49:57;2.50;;;1.75;;
82417;SDS011;72059;53.734;10.260;2023-10-09T05:52:32;1.70;;;1.60;;
82417;SDS011;72059;53.734;10.260;2023-10-09T05:55:07;1.67;;;1.57;;
82417;SDS011;72059;53.734;10.260;2023-10-09T05:57:42;2.33;;;1.65;;
82417;SDS011;72059;53.734;10.260;2023-10-09T06:00:20;1.98;;;1.60;;
82417;SDS011;72059;53.734;10.260;2023-10-09T06:03:05;1.62;;;1.30;;
82417;SDS011;72059;53.734;10.260;2023-10-09T06:05:46;2.05;;;1.60;;
82417;SDS011;72059;53.734;10.260;2023-10-09T06:08:28;1.55;;;1.20;;
82417;SDS011;72059;53.734;10.260;2023-10-09T06:13:56;1.52;;;1.35;;
82417;SDS011;72059;53.734;10.260;2023-10-09T06:16:32;1.45;;;1.35;;
82417;SDS011;72059;53.734;10.260;2023-10-09T06:19:22;2.35;;;1.80;;
82417;SDS011;72059;53.734;10.260;2023-10-09T06:21:54;1.92;;;1.75;;
82417;SDS011;72059;53.734;10.260;2023-10-09T06:24:30;2.45;;;1.50;;
82417;SDS011;72059;53.734;10.260;2023-10-09T06:27:11;1.82;;;1.47;;
82417;SDS011;72059;53.734;10.260;2023-10-09T06:29:41;1.95;;;1.50;;
82417;SDS011;72059;53.734;10.260;2023-10-09T06:32:17;1.62;;;1.30;;
82417;SDS011;72059;53.734;10.260;2023-10-09T06:34:47;1.95;;;1.42;;
82417;SDS011;72059;53.734;10.260;2023-10-09T06:37:21;1.67;;;1.57;;
82417;SDS011;72059;53.734;10.260;2023-10-09T06:39:52;1.95;;;1.40;;
82417;SDS011;72059;53.734;10.260;2023-10-09T06:42:23;3.58;;;1.50;;
82417;SDS011;72059;53.734;10.260;2023-10-09T06:45:01;2.77;;;1.72;;
82417;SDS011;72059;53.734;10.260;2023-10-09T06:47:42;2.47;;;1.93;;
82417;SDS011;72059;53.734;10.260;2023-10-09T06:50:13;2.17;;;1.62;;
82417;SDS011;72059;53.734;10.260;2023-10-09T06:52:48;2.45;;;1.67;;
82417;SDS011;72059;53.734;10.260;2023-10-09T06:55:26;2.10;;;1.50;;
82417;SDS011;72059;53.734;10.260;2023-10-09T06:58:01;1.90;;;1.67;;
82417;SDS011;72059;53.734;10.260;2023-10-09T07:00:30;2.02;;;1.60;;
82417;SDS011;72059;53.734;10.260;2023-10-09T07:03:15;2.45;;;1.80;;
82417;SDS011;72059;53.734;10.260;2023-10-09T07:05:44;2.65;;;1.70;;
82417;SDS011;72059;53.734;10.260;2023-10-09T07:08:29;3.10;;;2.10;;
82417;SDS011;72059;53.734;10.260;2023-10-09T07:11:01;2.20;;;1.57;;
82417;SDS011;72059;53.734;10.260;2023-10-09T07:13:30;1.60;;;1.50;;
82417;SDS011;72059;53.734;10.260;2023-10-09T07:15:59;1.42;;;1.32;;
82417;SDS011;72059;53.734;10.260;2023-10-09T07:18:44;1.60;;;1.20;;
82417;SDS011;72059;53.734;10.260;2023-10-09T07:21:13;2.27;;;1.35;;
82417;SDS011;72059;53.734;10.260;2023-10-09T07:23:42;1.35;;;1.25;;
82417;SDS011;72059;53.734;10.260;2023-10-09T07:26:11;1.20;;;1.10;;
82417;SDS011;72059;53.734;10.260;2023-10-09T07:28:46;1.57;;;1.40;;
82417;SDS011;72059;53.734;10.260;2023-10-09T07:31:17;2.40;;;1.72;;
82417;SDS011;72059;53.734;10.260;2023-10-09T07:33:52;1.98;;;1.77;;
82417;SDS011;72059;53.734;10.260;2023-10-09T07:36:23;2.17;;;1.77;;
82417;SDS011;72059;53.734;10.260;2023-10-09T07:38:58;3.00;;;1.72;;
82417;SDS011;72059;53.734;10.260;2023-10-09T07:41:30;1.95;;;1.85;;
82417;SDS011;72059;53.734;10.260;2023-10-09T07:44:00;2.70;;;2.50;;
82417;SDS011;72059;53.734;10.260;2023-10-09T07:46:29;4.72;;;2.17;;
82417;SDS011;72059;53.734;10.260;2023-10-09T07:51:35;2.35;;;1.98;;
82417;SDS011;72059;53.734;10.260;2023-10-09T07:54:03;1.60;;;1.50;;
82417;SDS011;72059;53.734;10.260;2023-10-09T07:56:34;1.92;;;1.72;;
82417;SDS011;72059;53.734;10.260;2023-10-09T07:59:07;1.27;;;1.17;;
82417;SDS011;72059;53.734;10.260;2023-10-09T08:01:43;1.75;;;1.65;;
82417;SDS011;72059;53.734;10.260;2023-10-09T08:04:22;1.52;;;1.42;;
82417;SDS011;72059;53.734;10.260;2023-10-09T08:06:51;1.90;;;1.75;;
82417;SDS011;72059;53.734;10.260;2023-10-09T08:09:20;2.30;;;1.75;;
82417;SDS011;72059;53.734;10.260;2023-10-09T08:11:50;2.45;;;2.25;;
82417;SDS011;72059;53.734;10.260;2023-10-09T08:14:27;3.47;;;3.05;;
82417;SDS011;72059;53.734;10.260;2023-10-09T08:17:02;2.87;;;2.62;;
82417;SDS011;72059;53.734;10.260;2023-10-09T08:19:42;4.37;;;3.17;;
82417;SDS011;72059;53.734;10.260;2023-10-09T08:22:23;4.37;;;2.98;;
82417;SDS011;72059;53.734;10.260;2023-10-09T08:24:56;3.45;;;2.67;;
82417;SDS011;72059;53.734;10.260;2023-10-09T08:27:25;3.52;;;2.65;;
82417;SDS011;72059;53.734;10.260;2023-10-09T08:30:02;3.55;;;2.92;;
82417;SDS011;72059;53.734;10.260;2023-10-09T08:32:45;2.70;;;2.50;;
82417;SDS011;72059;53.734;10.260;2023-10-09T08:35:30;4.28;;;2.70;;
82417;SDS011;72059;53.734;10.260;2023-10-09T08:38:04;3.10;;;2.80;;
82417;SDS011;72059;53.734;10.260;2023-10-09T08:40:38;4.37;;;3.08;;
82417;SDS011;72059;53.734;10.260;2023-10-09T08:43:17;3.17;;;2.87;;
82417;SDS011;72059;53.734;10.260;2023-10-09T08:45:46;4.58;;;3.52;;
82417;SDS011;72059;53.734;10.260;2023-10-09T08:48:16;3.40;;;3.10;;
82417;SDS011;72059;53.734;10.260;2023-10-09T08:50:44;2.80;;;2.10;;
82417;SDS011;72059;53.734;10.260;2023-10-09T08:53:14;4.17;;;3.05;;
82417;SDS011;72059;53.734;10.260;2023-10-09T08:55:43;3.37;;;2.90;;
82417;SDS011;72059;53.734;10.260;2023-10-09T08:58:12;3.10;;;2.80;;
82417;SDS011;72059;53.734;10.260;2023-10-09T09:00:48;3.33;;;3.02;;
82417;SDS011;72059;53.734;10.260;2023-10-09T09:03:16;3.20;;;2.83;;
82417;SDS011;72059;53.734;10.260;2023-10-09T09:05:47;2.58;;;2.37;;
82417;SDS011;72059;53.734;10.260;2023-10-09T09:08:24;2.37;;;2.20;;
82417;SDS011;72059;53.734;10.260;2023-10-09T09:13:43;2.52;;;2.27;;
82417;SDS011;72059;53.734;10.260;2023-10-09T09:16:15;2.25;;;2.05;;
82417;SDS011;72059;53.734;10.260;2023-10-09T09:18:50;2.70;;;2.08;;
82417;SDS011;72059;53.734;10.260;2023-10-09T09:21:36;2.45;;;2.25;;
82417;SDS011;72059;53.734;10.260;2023-10-09T09:24:07;3.08;;;2.77;;
82417;SDS011;72059;53.734;10.260;2023-10-09T09:26:44;2.75;;;2.55;;
82417;SDS011;72059;53.734;10.260;2023-10-09T09:29:14;3.10;;;2.80;;
82417;SDS011;72059;53.734;10.260;2023-10-09T09:31:57;2.70;;;2.50;;
82417;SDS011;72059;53.734;10.260;2023-10-09T09:34:23;2.92;;;2.70;;
82417;SDS011;72059;53.734;10.260;2023-10-09T09:36:58;3.37;;;2.65;;
82417;SDS011;72059;53.734;10.260;2023-10-09T09:39:27;2.55;;;2.35;;
82417;SDS011;72059;53.734;10.260;2023-10-09T09:41:55;2.15;;;2.05;;
82417;SDS011;72059;53.734;10.260;2023-10-09T09:44:26;2.08;;;1.87;;
82417;SDS011;72059;53.734;10.260;2023-10-09T09:46:55;3.40;;;2.25;;
82417;SDS011;72059;53.734;10.260;2023-10-09T09:49:25;1.90;;;1.80;;
82417;SDS011;72059;53.734;10.260;2023-10-09T09:51:56;1.72;;;1.62;;
82417;SDS011;72059;53.734;10.260;2023-10-09T09:54:25;1.60;;;1.50;;
82417;SDS011;72059;53.734;10.260;2023-10-09T09:56:55;1.50;;;1.40;;
82417;SDS011;72059;53.734;10.260;2023-10-09T09:59:25;1.80;;;1.70;;
82417;SDS011;72059;53.734;10.260;2023-10-09T10:01:56;1.60;;;1.50;;
82417;SDS011;72059;53.734;10.260;2023-10-09T10:04:28;1.85;;;1.75;;
82417;SDS011;72059;53.734;10.260;2023-10-09T10:06:58;1.12;;;1.10;;
82417;SDS011;72059;53.734;10.260;2023-10-09T10:09:34;1.20;;;1.20;;
82417;SDS011;72059;53.734;10.260;2023-10-09T10:12:06;1.70;;;1.42;;
82417;SDS011;72059;53.734;10.260;2023-10-09T10:14:58;1.25;;;1.15;;
82417;SDS011;72059;53.734;10.260;2023-10-09T10:17:25;1.30;;;1.20;;
82417;SDS011;72059;53.734;10.260;2023-10-09T10:22:29;1.00;;;1.00;;
82417;SDS011;72059;53.734;10.260;2023-10-09T10:24:58;1.10;;;1.10;;
82417;SDS011;72059;53.734;10.260;2023-10-09T10:27:27;1.60;;;1.50;;
82417;SDS011;72059;53.734;10.260;2023-10-09T10:30:27;1.50;;;1.40;;
82417;SDS011;72059;53.734;10.260;2023-10-09T10:33:00;1.40;;;1.30;;
82417;SDS011;72059;53.734;10.260;2023-10-09T10:35:42;1.42;;;1.32;;
82417;SDS011;72059;53.734;10.260;2023-10-09T10:41:13;1.25;;;1.22;;
82417;SDS011;72059;53.734;10.260;2023-10-09T10:43:46;1.70;;;1.60;;
82417;SDS011;72059;53.734;10.260;2023-10-09T10:46:14;0.70;;;0.70;;
82417;SDS011;72059;53.734;10.260;2023-10-09T10:49:01;1.40;;;1.30;;
82417;SDS011;72059;53.734;10.260;2023-10-09T10:51:44;1.10;;;1.10;;
82417;SDS011;72059;53.734;10.260;2023-10-09T10:54:21;1.15;;;1.15;;
82417;SDS011;72059;53.734;10.260;2023-10-09T10:56:54;1.32;;;1.22;;
82417;SDS011;72059;53.734;10.260;2023-10-09T10:59:23;1.37;;;1.27;;
82417;SDS011;72059;53.734;10.260;2023-10-09T11:01:52;1.37;;;1.30;;
82417;SDS011;72059;53.734;10.260;2023-10-09T11:04:25;1.40;;;1.30;;
82417;SDS011;72059;53.734;10.260;2023-10-09T11:06:55;1.20;;;1.20;;
82417;SDS011;72059;53.734;10.260;2023-10-09T11:09:27;1.40;;;1.30;;
82417;SDS011;72059;53.734;10.260;2023-10-09T11:12:09;0.90;;;0.90;;
82417;SDS011;72059;53.734;10.260;2023-10-09T11:14:46;1.20;;;1.10;;
82417;SDS011;72059;53.734;10.260;2023-10-09T11:17:33;1.02;;;1.00;;
82417;SDS011;72059;53.734;10.260;2023-10-09T11:20:04;1.02;;;0.95;;
82417;SDS011;72059;53.734;10.260;2023-10-09T11:22:50;1.10;;;1.10;;
82417;SDS011;72059;53.734;10.260;2023-10-09T11:25:43;1.10;;;1.00;;
82417;SDS011;72059;53.734;10.260;2023-10-09T11:28:19;0.90;;;0.90;;
82417;SDS011;72059;53.734;10.260;2023-10-09T11:31:11;0.90;;;0.90;;
82417;SDS011;72059;53.734;10.260;2023-10-09T11:33:44;0.60;;;0.60;;
82417;SDS011;72059;53.734;10.260;2023-10-09T11:36:22;0.60;;;0.60;;
82417;SDS011;72059;53.734;10.260;2023-10-09T11:38:48;0.70;;;0.70;;
82417;SDS011;72059;53.734;10.260;2023-10-09T11:41:17;0.75;;;0.75;;
82417;SDS011;72059;53.734;10.260;2023-10-09T11:43:53;0.62;;;0.62;;
82417;SDS011;72059;53.734;10.260;2023-10-09T11:46:22;0.42;;;0.42;;
82417;SDS011;72059;53.734;10.260;2023-10-09T11:49:06;0.70;;;0.70;;
82417;SDS011;72059;53.734;10.260;2023-10-09T11:54:33;0.60;;;0.60;;
82417;SDS011;72059;53.734;10.260;2023-10-09T11:57:03;0.60;;;0.60;;
82417;SDS011;72059;53.734;10.260;2023-10-09T11:59:31;0.60;;;0.60;;
82417;SDS011;72059;53.734;10.260;2023-10-09T12:02:07;0.70;;;0.70;;
82417;SDS011;72059;53.734;10.260;2023-10-09T12:07:08;0.50;;;0.50;;
82417;SDS011;72059;53.734;10.260;2023-10-09T12:09:36;0.45;;;0.45;;
82417;SDS011;72059;53.734;10.260;2023-10-09T12:12:04;0.40;;;0.40;;
82417;SDS011;72059;53.734;10.260;2023-10-09T12:14:34;0.50;;;0.50;;
82417;SDS011;72059;53.734;10.260;2023-10-09T12:17:11;0.30;;;0.30;;
82417;SDS011;72059;53.734;10.260;2023-10-09T12:22:04;0.37;;;0.37;;
82417;SDS011;72059;53.734;10.260;2023-10-09T12:24:34;0.50;;;0.50;;
82417;SDS011;72059;53.734;10.260;2023-10-09T12:27:03;0.42;;;0.42;;
82417;SDS011;72059;53.734;10.260;2023-10-09T12:29:33;0.23;;;0.23;;
82417;SDS011;72059;53.734;10.260;2023-10-09T12:32:00;0.55;;;0.55;;
82417;SDS011;72059;53.734;10.260;2023-10-09T12:34:29;0.40;;;0.40;;
82417;SDS011;72059;53.734;10.260;2023-10-09T12:36:57;0.50;;;0.50;;
82417;SDS011;72059;53.734;10.260;2023-10-09T12:39:27;0.28;;;0.28;;
82417;SDS011;72059;53.734;10.260;2023-10-09T12:41:59;0.40;;;0.40;;
82417;SDS011;72059;53.734;10.260;2023-10-09T12:44:32;0.30;;;0.30;;
82417;SDS011;72059;53.734;10.260;2023-10-09T12:47:02;0.40;;;0.40;;
82417;SDS011;72059;53.734;10.260;2023-10-09T12:49:30;0.40;;;0.40;;
82417;SDS011;72059;53.734;10.260;2023-10-09T12:51:58;0.50;;;0.50;;
82417;SDS011;72059;53.734;10.260;2023-10-09T12:54:26;0.35;;;0.35;;
82417;SDS011;72059;53.734;10.260;2023-10-09T12:56:54;0.60;;;0.60;;
82417;SDS011;72059;53.734;10.260;2023-10-09T12:59:23;0.47;;;0.47;;
82417;SDS011;72059;53.734;10.260;2023-10-09T13:01:50;0.40;;;0.40;;
82417;SDS011;72059;53.734;10.260;2023-10-09T13:04:19;0.30;;;0.30;;
82417;SDS011;72059;53.734;10.260;2023-10-09T13:06:48;0.30;;;0.30;;
82417;SDS011;72059;53.734;10.260;2023-10-09T13:09:17;0.37;;;0.37;;
82417;SDS011;72059;53.734;10.260;2023-10-09T13:11:46;0.55;;;0.28;;
82417;SDS011;72059;53.734;10.260;2023-10-09T13:14:15;0.40;;;0.40;;
82417;SDS011;72059;53.734;10.260;2023-10-09T13:16:45;0.40;;;0.40;;
82417;SDS011;72059;53.734;10.260;2023-10-09T13:19:12;0.40;;;0.40;;
82417;SDS011;72059;53.734;10.260;2023-10-09T13:21:40;0.45;;;0.45;;
82417;SDS011;72059;53.734;10.260;2023-10-09T13:24:07;0.47;;;0.47;;
82417;SDS011;72059;53.734;10.260;2023-10-09T13:26:41;0.28;;;0.28;;
82417;SDS011;72059;53.734;10.260;2023-10-09T13:29:11;0.30;;;0.30;;
82417;SDS011;72059;53.734;10.260;2023-10-09T13:31:41;0.30;;;0.30;;
82417;SDS011;72059;53.734;10.260;2023-10-09T13:34:10;0.30;;;0.30;;
82417;SDS011;72059;53.734;10.260;2023-10-09T13:36:41;0.40;;;0.40;;
82417;SDS011;72059;53.734;10.260;2023-10-09T13:39:10;0.40;;;0.40;;
82417;SDS011;72059;53.734;10.260;2023-10-09T13:41:51;0.50;;;0.50;;
82417;SDS011;72059;53.734;10.260;2023-10-09T13:44:30;0.30;;;0.30;;
82417;SDS011;72059;53.734;10.260;2023-10-09T13:46:59;0.40;;;0.40;;
82417;SDS011;72059;53.734;10.260;2023-10-09T13:49:29;0.20;;;0.20;;
82417;SDS011;72059;53.734;10.260;2023-10-09T13:51:57;0.60;;;0.60;;
82417;SDS011;72059;53.734;10.260;2023-10-09T13:54:25;0.30;;;0.30;;
82417;SDS011;72059;53.734;10.260;2023-10-09T13:57:06;0.33;;;0.33;;
82417;SDS011;72059;53.734;10.260;2023-10-09T13:59:30;0.30;;;0.30;;
82417;SDS011;72059;53.734;10.260;2023-10-09T14:02:02;0.60;;;0.60;;
82417;SDS011;72059;53.734;10.260;2023-10-09T14:04:34;0.50;;;0.50;;
82417;SDS011;72059;53.734;10.260;2023-10-09T14:07:02;0.35;;;0.35;;
82417;SDS011;72059;53.734;10.260;2023-10-09T14:09:31;0.53;;;0.53;;
82417;SDS011;72059;53.734;10.260;2023-10-09T14:12:00;0.40;;;0.40;;
82417;SDS011;72059;53.734;10.260;2023-10-09T14:14:37;0.30;;;0.30;;
82417;SDS011;72059;53.734;10.260;2023-10-09T14:17:15;0.40;;;0.40;;
82417;SDS011;72059;53.734;10.260;2023-10-09T14:19:51;0.30;;;0.30;;
82417;SDS011;72059;53.734;10.260;2023-10-09T14:22:15;0.20;;;0.20;;
82417;SDS011;72059;53.734;10.260;2023-10-09T14:24:48;0.40;;;0.40;;
82417;SDS011;72059;53.734;10.260;2023-10-09T14:27:17;0.50;;;0.50;;
82417;SDS011;72059;53.734;10.260;2023-10-09T14:29:45;0.33;;;0.33;;
82417;SDS011;72059;53.734;10.260;2023-10-09T14:32:13;0.30;;;0.30;;
82417;SDS011;72059;53.734;10.260;2023-10-09T14:34:43;0.50;;;0.50;;
82417;SDS011;72059;53.734;10.260;2023-10-09T14:37:12;0.40;;;0.40;;
82417;SDS011;72059;53.734;10.260;2023-10-09T14:39:40;0.50;;;0.50;;
82417;SDS011;72059;53.734;10.260;2023-10-09T14:42:10;0.30;;;0.30;;
82417;SDS011;72059;53.734;10.260;2023-10-09T14:44:38;0.45;;;0.45;;
82417;SDS011;72059;53.734;10.260;2023-10-09T14:47:06;0.30;;;0.30;;
82417;SDS011;72059;53.734;10.260;2023-10-09T14:49:34;0.40;;;0.40;;
82417;SDS011;72059;53.734;10.260;2023-10-09T14:52:03;0.42;;;0.42;;
82417;SDS011;72059;53.734;10.260;2023-10-09T14:54:34;0.40;;;0.40;;
82417;SDS011;72059;53.734;10.260;2023-10-09T14:57:05;0.42;;;0.42;;
82417;SDS011;72059;53.734;10.260;2023-10-09T14:59:35;0.40;;;0.40;;
82417;SDS011;72059;53.734;10.260;2023-10-09T15:02:02;0.40;;;0.40;;
82417;SDS011;72059;53.734;10.260;2023-10-09T15:04:33;0.50;;;0.50;;
82417;SDS011;72059;53.734;10.260;2023-10-09T15:07:02;0.40;;;0.40;;
82417;SDS011;72059;53.734;10.260;2023-10-09T15:09:32;0.55;;;0.55;;
82417;SDS011;72059;53.734;10.260;2023-10-09T15:12:02;0.30;;;0.30;;
82417;SDS011;72059;53.734;10.260;2023-10-09T15:14:31;0.40;;;0.40;;
82417;SDS011;72059;53.734;10.260;2023-10-09T15:16:59;0.33;;;0.33;;
82417;SDS011;72059;53.734;10.260;2023-10-09T15:19:26;0.60;;;0.60;;
82417;SDS011;72059;53.734;10.260;2023-10-09T15:21:56;0.40;;;0.40;;
82417;SDS011;72059;53.734;10.260;2023-10-09T15:24:27;0.78;;;0.78;;
82417;SDS011;72059;53.734;10.260;2023-10-09T15:26:55;0.50;;;0.50;;
82417;SDS011;72059;53.734;10.260;2023-10-09T15:29:25;0.50;;;0.50;;
82417;SDS011;72059;53.734;10.260;2023-10-09T15:32:01;0.45;;;0.45;;